LTAY/DNZ METAR and TAF weather

Enter ICAO airport designator
Station Type Date Time Source
LTAY METAR 2020/07/06 08:50 UTC NOAA

LTAY 060850Z 08008KT 030V130 CAVOK 33/09 Q1006


Station Type Date Time Source
LTAY Decoded METAR 2020/07/06 08:50 UTC NOAA

Cardak, Turkey (LTAY) 37-47N 029-42E
Jul 06, 2020 - 04:50 AM EDT / 2020.07.06 0850 UTC
Wind: from the E (080 degrees) at 9 MPH (8 KT) (direction variable):0
Visibility: greater than 7 mile(s):0
Temperature: 91 F (33 C)
Dew Point: 48 F (9 C)
Relative Humidity: 22%
Pressure (altimeter): 29.71 in. Hg (1006 hPa)
ob: LTAY 060850Z 08008KT 030V130 CAVOK 33/09 Q1006
cycle: 9

Station Type Date Time Source
LTAY TAF UTC NOAA

Error!

Example: see airport list